createdAt,value
2022-09-07T00:00:59.127Z,0.00
2022-09-07T00:01:59.123Z,0.00
2022-09-07T00:02:59.138Z,0.00
2022-09-07T00:03:59.125Z,0.00
2022-09-07T00:04:59.073Z,0.00
2022-09-07T00:05:59.066Z,0.00
2022-09-07T00:06:59.044Z,0.00
2022-09-07T00:07:59.031Z,0.00
2022-09-07T00:08:59.014Z,0.00
2022-09-07T00:09:59.003Z,0.00
2022-09-07T00:10:58.991Z,0.00
2022-09-07T00:11:58.984Z,0.00
2022-09-07T00:12:58.963Z,0.00
2022-09-07T00:13:58.949Z,0.00
2022-09-07T00:14:58.934Z,0.00
2022-09-07T00:15:58.949Z,0.00
2022-09-07T00:16:58.910Z,0.00
2022-09-07T00:17:58.901Z,0.00
2022-09-07T00:18:59.229Z,0.00
2022-09-07T00:19:58.865Z,0.00
2022-09-07T00:20:58.860Z,0.00
2022-09-07T00:21:58.842Z,0.00
2022-09-07T00:22:59.130Z,0.00
2022-09-07T00:23:58.813Z,0.00
2022-09-07T00:24:58.800Z,0.00
2022-09-07T00:25:58.784Z,0.00
2022-09-07T00:26:58.773Z,0.00
2022-09-07T00:27:58.762Z,0.00
2022-09-07T00:28:58.740Z,0.00
2022-09-07T00:29:58.729Z,0.00
2022-09-07T00:30:58.792Z,0.00
2022-09-07T00:31:58.702Z,0.00
2022-09-07T00:32:58.691Z,0.00
2022-09-07T00:33:58.684Z,0.00
2022-09-07T00:34:58.662Z,0.00
2022-09-07T00:35:58.648Z,0.00
2022-09-07T00:36:58.639Z,0.00
2022-09-07T00:37:58.627Z,0.00
2022-09-07T00:38:58.613Z,0.00
2022-09-07T00:39:58.681Z,0.00
2022-09-07T00:40:58.583Z,0.00
2022-09-07T00:41:58.570Z,0.00
2022-09-07T00:42:58.552Z,0.00
2022-09-07T00:43:58.546Z,0.00
2022-09-07T00:44:58.521Z,0.00
2022-09-07T00:45:58.512Z,0.00
2022-09-07T00:46:58.549Z,0.00
2022-09-07T00:47:58.486Z,0.00
2022-09-07T00:48:58.466Z,0.00
2022-09-07T00:49:58.452Z,0.00
2022-09-07T00:50:58.456Z,0.00
2022-09-07T00:51:58.428Z,0.00
2022-09-07T00:52:58.415Z,0.00
2022-09-07T00:53:58.418Z,0.00
2022-09-07T00:54:58.388Z,0.00
2022-09-07T00:55:58.377Z,0.00
2022-09-07T00:56:58.360Z,0.00
2022-09-07T00:57:58.349Z,0.00
2022-09-07T00:58:58.328Z,0.00
2022-09-07T00:59:58.320Z,0.00
2022-09-07T01:00:58.307Z,0.00
2022-09-07T01:01:58.456Z,0.00
2022-09-07T01:02:58.376Z,0.00
2022-09-07T01:03:58.273Z,0.00
2022-09-07T01:04:58.255Z,0.00
2022-09-07T01:05:58.240Z,0.00
2022-09-07T01:06:58.230Z,0.00
2022-09-07T01:07:58.218Z,0.00
2022-09-07T01:08:58.195Z,0.00
2022-09-07T01:09:58.182Z,0.00
2022-09-07T01:10:58.171Z,0.00
2022-09-07T01:11:58.156Z,0.00
2022-09-07T01:14:05.072Z,0.00
2022-09-07T01:15:05.005Z,0.00
2022-09-07T01:16:05.093Z,0.00
2022-09-07T01:17:04.976Z,0.00
2022-09-07T01:18:04.960Z,0.00
2022-09-07T01:19:04.945Z,0.00
2022-09-07T01:20:04.938Z,0.00
2022-09-07T01:21:04.920Z,0.00
2022-09-07T01:22:04.913Z,0.00
2022-09-07T01:23:04.892Z,0.00
2022-09-07T01:24:05.182Z,0.00
2022-09-07T01:25:04.867Z,0.00
2022-09-07T01:26:04.867Z,0.00
2022-09-07T01:27:04.844Z,0.00
2022-09-07T01:28:04.832Z,0.00
2022-09-07T01:29:04.815Z,0.00
2022-09-07T01:30:04.799Z,0.00
2022-09-07T01:31:04.848Z,0.00
2022-09-07T01:32:04.775Z,0.00
2022-09-07T01:33:04.960Z,0.00
2022-09-07T01:34:04.751Z,0.00
2022-09-07T01:35:04.736Z,0.00
2022-09-07T01:36:04.730Z,0.00
2022-09-07T01:37:04.709Z,0.00
2022-09-07T01:38:04.698Z,0.00
2022-09-07T01:39:04.695Z,0.00
2022-09-07T01:40:04.736Z,0.00
2022-09-07T01:41:04.651Z,0.00
2022-09-07T01:42:04.646Z,0.00
2022-09-07T01:43:04.624Z,0.00
2022-09-07T01:44:04.615Z,0.00
2022-09-07T01:45:04.800Z,0.00
2022-09-07T01:46:04.684Z,0.00
2022-09-07T01:47:04.575Z,0.00
2022-09-07T01:48:04.566Z,0.00
2022-09-07T01:49:04.550Z,0.00
2022-09-07T01:50:04.535Z,0.00
2022-09-07T01:51:04.521Z,0.00
2022-09-07T01:52:04.510Z,0.00
2022-09-07T01:53:04.491Z,0.00
2022-09-07T01:54:04.493Z,0.00
2022-09-07T01:55:04.471Z,0.00
2022-09-07T01:56:04.460Z,0.00
2022-09-07T01:57:04.441Z,0.00
2022-09-07T01:58:04.429Z,0.00
2022-09-07T01:59:04.413Z,0.00
2022-09-07T02:00:04.404Z,0.00
2022-09-07T02:01:04.390Z,0.00
2022-09-07T02:02:04.439Z,0.00
2022-09-07T02:03:04.450Z,0.00
2022-09-07T02:04:04.343Z,0.00
2022-09-07T02:05:04.338Z,0.00
2022-09-07T02:06:04.331Z,0.00
2022-09-07T02:07:04.313Z,0.00
2022-09-07T02:08:04.295Z,0.00
2022-09-07T02:09:04.288Z,0.00
2022-09-07T02:10:04.269Z,0.00
2022-09-07T02:11:04.261Z,0.00
2022-09-07T02:12:04.240Z,0.00
2022-09-07T02:13:04.231Z,0.00
2022-09-07T02:14:04.209Z,0.00
2022-09-07T02:15:04.204Z,0.00
2022-09-07T02:16:04.276Z,0.00
2022-09-07T02:17:04.173Z,0.00
2022-09-07T02:18:04.157Z,0.00
2022-09-07T02:19:04.141Z,0.00
2022-09-07T02:20:04.132Z,0.00
2022-09-07T02:21:04.119Z,0.00
2022-09-07T02:22:04.116Z,0.00
2022-09-07T02:23:04.093Z,0.00
2022-09-07T02:24:04.088Z,0.00
2022-09-07T02:25:04.066Z,0.00
2022-09-07T02:26:04.058Z,0.00
2022-09-07T02:27:04.041Z,0.00
2022-09-07T02:28:04.082Z,0.00
2022-09-07T02:29:04.012Z,0.00
2022-09-07T02:30:04.003Z,0.00
2022-09-07T02:31:04.027Z,0.00
2022-09-07T02:32:03.984Z,0.00
2022-09-07T02:33:03.958Z,0.00
2022-09-07T02:34:03.952Z,0.00
2022-09-07T02:35:03.928Z,0.00
2022-09-07T02:36:03.922Z,0.00
2022-09-07T02:37:03.913Z,0.00
2022-09-07T02:38:03.904Z,0.00
2022-09-07T02:39:03.885Z,0.00
2022-09-07T02:40:03.971Z,0.00
2022-09-07T02:41:03.855Z,0.00
2022-09-07T02:42:03.846Z,0.00
2022-09-07T02:43:03.827Z,0.00
2022-09-07T02:44:03.819Z,0.00
2022-09-07T02:45:03.803Z,0.00
2022-09-07T02:46:03.882Z,0.00
2022-09-07T02:47:03.768Z,0.00
2022-09-07T02:48:03.761Z,0.00
2022-09-07T02:49:03.744Z,0.00
2022-09-07T02:50:04.175Z,0.00
2022-09-07T02:51:03.719Z,0.00
2022-09-07T02:52:03.710Z,0.00
2022-09-07T02:53:03.697Z,0.00
2022-09-07T02:54:03.684Z,0.00
2022-09-07T02:55:03.667Z,0.00
2022-09-07T02:56:03.659Z,0.00
2022-09-07T02:57:03.645Z,0.00
2022-09-07T02:58:03.630Z,0.00
2022-09-07T02:59:03.619Z,0.00
2022-09-07T03:00:03.603Z,0.00
2022-09-07T03:01:03.641Z,0.00
2022-09-07T03:02:03.571Z,0.00
2022-09-07T03:03:03.556Z,0.00
2022-09-07T03:04:03.545Z,0.00
2022-09-07T03:05:03.528Z,0.00
2022-09-07T03:06:03.521Z,0.00
2022-09-07T03:07:03.505Z,0.00
2022-09-07T03:08:03.496Z,0.00
2022-09-07T03:09:03.478Z,0.00
2022-09-07T03:10:03.477Z,0.00
2022-09-07T03:11:03.444Z,0.00
2022-09-07T03:12:03.437Z,0.00
2022-09-07T03:13:03.428Z,0.00
2022-09-07T03:14:03.412Z,0.00
2022-09-07T03:15:03.391Z,0.00
2022-09-07T03:16:03.497Z,0.00
2022-09-07T03:17:03.366Z,0.00
2022-09-07T03:18:03.374Z,0.00
2022-09-07T03:19:03.349Z,0.00
2022-09-07T03:20:03.335Z,0.00
2022-09-07T03:21:03.324Z,0.00
2022-09-07T03:22:03.301Z,0.00
2022-09-07T03:23:03.303Z,0.00
2022-09-07T03:24:03.275Z,0.00
2022-09-07T03:25:03.260Z,0.00
2022-09-07T03:26:03.247Z,0.00
2022-09-07T03:27:03.233Z,0.00
2022-09-07T03:28:03.227Z,0.00
2022-09-07T03:29:03.206Z,0.00
2022-09-07T03:30:36.895Z,0.00
2022-09-07T03:31:36.629Z,0.00
2022-09-07T03:32:36.608Z,0.00
2022-09-07T03:33:36.595Z,0.00
2022-09-07T03:34:36.582Z,0.00
2022-09-07T03:35:36.574Z,0.00
2022-09-07T03:36:36.547Z,0.00
2022-09-07T03:37:36.542Z,0.00
2022-09-07T03:38:36.519Z,0.00
2022-09-07T03:39:36.599Z,0.00
2022-09-07T03:40:36.494Z,0.00
2022-09-07T03:41:36.484Z,0.00
2022-09-07T03:42:36.475Z,0.00
2022-09-07T03:43:36.461Z,0.00
2022-09-07T03:44:36.446Z,0.00
2022-09-07T03:45:36.439Z,0.00
2022-09-07T03:46:36.421Z,0.00
2022-09-07T03:47:36.406Z,0.00
2022-09-07T03:48:36.385Z,0.00
2022-09-07T03:49:36.383Z,0.00
2022-09-07T03:50:36.366Z,0.00
2022-09-07T03:51:36.509Z,0.00
2022-09-07T03:52:36.341Z,0.00
2022-09-07T03:53:36.330Z,0.00
2022-09-07T03:54:39.414Z,0.00
2022-09-07T03:55:36.300Z,0.00
2022-09-07T03:56:36.282Z,0.00
2022-09-07T03:57:36.274Z,0.00
2022-09-07T03:58:36.256Z,0.00
2022-09-07T03:59:36.241Z,0.00
2022-09-07T04:00:36.224Z,0.00
2022-09-07T04:01:36.266Z,0.00
2022-09-07T04:02:36.269Z,0.00
2022-09-07T04:03:36.190Z,0.00
2022-09-07T04:04:36.172Z,0.00
2022-09-07T04:05:36.162Z,0.00
2022-09-07T04:06:36.149Z,0.00
2022-09-07T04:07:36.139Z,0.00
2022-09-07T04:08:36.121Z,0.00
2022-09-07T04:09:36.118Z,0.00
2022-09-07T04:10:36.094Z,0.00
2022-09-07T04:11:36.104Z,0.00
2022-09-07T04:12:36.069Z,0.00
2022-09-07T04:13:36.060Z,0.00
2022-09-07T04:14:36.036Z,0.00
2022-09-07T04:15:36.024Z,0.00
2022-09-07T04:16:36.073Z,0.00
2022-09-07T04:17:36.000Z,0.00
2022-09-07T04:18:35.985Z,0.00
2022-09-07T04:19:35.968Z,0.00
2022-09-07T04:20:35.960Z,0.00
2022-09-07T04:21:35.947Z,0.00
2022-09-07T04:22:35.940Z,0.00
2022-09-07T04:23:35.926Z,4.00
2022-09-07T04:24:35.918Z,0.00
2022-09-07T04:25:35.895Z,0.00
2022-09-07T04:26:35.886Z,4.00
2022-09-07T04:27:35.875Z,4.00
2022-09-07T04:28:35.860Z,4.00
2022-09-07T04:29:35.849Z,4.00
2022-09-07T04:30:35.894Z,4.00
2022-09-07T04:31:35.818Z,4.00
2022-09-07T04:32:35.803Z,8.00
2022-09-07T04:33:35.789Z,8.00
2022-09-07T04:34:35.772Z,12.00
2022-09-07T04:35:35.756Z,8.00
2022-09-07T04:36:35.765Z,12.00
2022-09-07T04:37:35.734Z,16.00
2022-09-07T04:38:35.727Z,20.00
2022-09-07T04:39:35.781Z,20.00
2022-09-07T04:40:35.698Z,24.00
2022-09-07T04:41:35.681Z,32.00
2022-09-07T04:42:35.668Z,32.00
2022-09-07T04:43:35.652Z,36.00
2022-09-07T04:44:35.648Z,40.00
2022-09-07T04:45:35.654Z,44.00
2022-09-07T04:46:35.621Z,48.00
2022-09-07T04:47:35.599Z,52.00
2022-09-07T04:48:35.588Z,64.00
2022-09-07T04:49:35.568Z,68.00
2022-09-07T04:50:35.555Z,76.00
2022-09-07T04:51:35.540Z,88.00
2022-09-07T04:52:35.531Z,96.00
2022-09-07T04:53:35.512Z,104.00
2022-09-07T04:54:35.513Z,112.00
2022-09-07T04:55:35.492Z,124.00
2022-09-07T04:56:35.733Z,136.00
2022-09-07T04:57:35.464Z,144.00
2022-09-07T04:58:35.455Z,160.00
2022-09-07T04:59:35.438Z,176.00
2022-09-07T05:00:35.427Z,192.00
2022-09-07T05:01:35.484Z,208.00
2022-09-07T05:02:35.471Z,224.00
2022-09-07T05:03:35.379Z,244.00
2022-09-07T05:04:35.370Z,272.00
2022-09-07T05:05:35.352Z,304.00
2022-09-07T05:06:35.351Z,336.00
2022-09-07T05:07:35.333Z,384.00
2022-09-07T05:08:35.320Z,432.00
2022-09-07T05:09:35.304Z,464.00
2022-09-07T05:10:35.295Z,476.00
2022-09-07T05:11:35.278Z,460.00
2022-09-07T05:12:35.267Z,448.00
2022-09-07T05:13:35.252Z,468.00
2022-09-07T05:14:35.235Z,484.00
2022-09-07T05:15:35.223Z,504.00
2022-09-07T05:16:35.285Z,516.00
2022-09-07T05:17:35.201Z,556.00
2022-09-07T05:18:35.182Z,576.00
2022-09-07T05:19:35.170Z,608.00
2022-09-07T05:20:35.156Z,644.00
2022-09-07T05:21:35.136Z,680.00
2022-09-07T05:22:35.186Z,684.00
2022-09-07T05:23:35.114Z,724.00
2022-09-07T05:24:35.115Z,720.00
2022-09-07T05:25:35.091Z,696.00
2022-09-07T05:26:35.078Z,648.00
2022-09-07T05:27:35.055Z,676.00
2022-09-07T05:28:35.052Z,788.00
2022-09-07T05:31:35.006Z,776.00
2022-09-07T05:32:34.992Z,792.00
2022-09-07T05:34:35.059Z,848.00
2022-09-07T05:35:34.951Z,848.00
2022-09-07T05:36:34.996Z,824.00
2022-09-07T05:37:34.934Z,792.00
2022-09-07T05:38:34.911Z,856.00
2022-09-07T05:39:34.943Z,1024.00
2022-09-07T05:40:39.898Z,1048.00
2022-09-07T05:41:34.867Z,1040.00
2022-09-07T05:42:34.860Z,772.00
2022-09-07T05:43:35.016Z,752.00
2022-09-07T05:44:50.160Z,812.00
2022-09-07T05:45:35.868Z,876.00
2022-09-07T05:46:34.804Z,908.00
2022-09-07T05:47:34.784Z,896.00
2022-09-07T05:48:34.779Z,912.00
2022-09-07T05:49:34.758Z,996.00
2022-09-07T05:50:34.744Z,1084.00
2022-09-07T05:51:34.730Z,1156.00
2022-09-07T05:52:34.720Z,1144.00
2022-09-07T05:53:34.707Z,1136.00
2022-09-07T05:54:34.698Z,1112.00
2022-09-07T05:55:34.676Z,1124.00
2022-09-07T05:56:34.667Z,1124.00
2022-09-07T05:57:34.652Z,1156.00
2022-09-07T05:58:34.637Z,1092.00
2022-09-07T05:59:34.618Z,1024.00
2022-09-07T06:00:34.610Z,1028.00
2022-09-07T06:01:34.595Z,912.00
2022-09-07T06:02:39.521Z,896.00
2022-09-07T06:03:34.651Z,912.00
2022-09-07T06:04:34.555Z,920.00
2022-09-07T06:05:34.539Z,972.00
2022-09-07T06:06:34.534Z,1104.00
2022-09-07T06:07:34.513Z,1208.00
2022-09-07T06:08:34.501Z,1512.00
2022-09-07T06:09:34.680Z,2724.00
2022-09-07T06:10:49.942Z,2388.00
2022-09-07T06:11:35.484Z,2176.00
2022-09-07T06:12:34.454Z,2296.00
2022-09-07T06:13:34.432Z,2324.00
2022-09-07T06:14:34.416Z,2248.00
2022-09-07T06:15:34.414Z,2132.00
2022-09-07T06:16:34.495Z,2160.00
2022-09-07T06:17:34.375Z,2144.00
2022-09-07T06:18:34.369Z,2252.00
2022-09-07T06:19:34.346Z,2408.00
2022-09-07T06:20:34.341Z,2460.00
2022-09-07T06:21:34.323Z,2376.00
2022-09-07T06:22:34.320Z,2228.00
2022-09-07T06:23:34.301Z,2200.00
2022-09-07T06:24:34.289Z,2160.00
2022-09-07T06:25:34.272Z,2216.00
2022-09-07T06:26:34.259Z,2396.00
2022-09-07T06:27:34.593Z,2628.00
2022-09-07T06:28:34.228Z,2888.00
2022-09-07T06:29:34.213Z,3100.00
2022-09-07T06:30:34.205Z,3308.00
2022-09-07T06:31:34.542Z,3132.00
2022-09-07T06:32:49.626Z,2776.00
2022-09-07T06:33:35.409Z,2508.00
2022-09-07T06:34:34.151Z,2340.00
2022-09-07T06:35:34.135Z,2364.00
2022-09-07T06:36:34.129Z,2312.00
2022-09-07T06:37:34.110Z,2204.00
2022-09-07T06:38:34.096Z,2236.00
2022-09-07T06:39:34.118Z,2556.00
2022-09-07T06:40:34.071Z,3800.00
2022-09-07T06:42:34.043Z,1900.00
2022-09-07T06:43:34.024Z,1576.00
2022-09-07T06:44:34.017Z,1692.00
2022-09-07T06:45:34.027Z,2120.00
2022-09-07T06:47:33.974Z,10840.00
2022-09-07T06:48:33.966Z,10744.00
2022-09-07T06:49:33.947Z,10636.00
2022-09-07T06:50:33.940Z,10156.00
2022-09-07T06:51:33.923Z,9576.00
2022-09-07T06:53:33.937Z,11172.00
2022-09-07T06:55:33.864Z,11392.00
2022-09-07T06:56:33.854Z,11296.00
2022-09-07T06:57:33.836Z,11000.00
2022-09-07T06:58:33.830Z,10816.00
2022-09-07T06:59:33.814Z,10884.00
2022-09-07T07:00:34.003Z,10976.00
2022-09-07T07:01:33.791Z,11136.00
2022-09-07T07:02:33.775Z,11084.00
2022-09-07T07:03:33.783Z,11296.00
2022-09-07T07:04:39.626Z,11552.00
2022-09-07T07:05:34.753Z,11680.00
2022-09-07T07:06:33.719Z,10156.00
2022-09-07T07:07:33.704Z,11584.00
2022-09-07T07:08:33.696Z,11840.00
2022-09-07T07:09:33.674Z,11616.00
2022-09-07T07:10:33.675Z,11392.00
2022-09-07T07:11:33.659Z,10284.00
2022-09-07T07:12:58.664Z,9992.00
2022-09-07T07:13:58.193Z,9520.00
2022-09-07T07:14:58.176Z,9160.00
2022-09-07T07:15:58.211Z,9456.00
2022-09-07T07:16:58.208Z,8036.00
2022-09-07T07:18:05.416Z,7764.00
2022-09-07T07:18:59.137Z,7028.00
2022-09-07T07:19:58.110Z,6024.00
2022-09-07T07:20:58.089Z,6960.00
2022-09-07T07:22:58.065Z,5352.00
2022-09-07T07:23:58.056Z,5300.00
2022-09-07T07:24:58.043Z,6172.00
2022-09-07T07:25:58.033Z,6080.00
2022-09-07T07:26:58.019Z,6020.00
2022-09-07T07:29:57.977Z,5768.00
2022-09-07T07:30:57.959Z,5196.00
2022-09-07T07:31:57.950Z,5836.00
2022-09-07T07:32:58.109Z,5492.00
2022-09-07T07:33:58.004Z,5236.00
2022-09-07T07:34:57.913Z,5124.00
2022-09-07T07:35:57.905Z,5236.00
2022-09-07T07:36:57.899Z,5476.00
2022-09-07T07:42:00.367Z,5588.00
2022-09-07T07:42:57.808Z,5680.00
2022-09-07T07:43:57.829Z,5736.00
2022-09-07T07:45:59.186Z,6016.00
2022-09-07T07:46:57.826Z,6092.00
2022-09-07T07:47:57.749Z,6208.00
2022-09-07T07:48:57.735Z,6392.00
2022-09-07T07:50:58.734Z,7876.00
2022-09-07T07:53:58.078Z,9076.00
2022-09-07T07:54:57.724Z,10276.00
2022-09-07T07:55:57.653Z,16544.00
2022-09-07T07:56:57.632Z,17920.00
2022-09-07T07:57:57.621Z,16320.00
2022-09-07T07:58:57.608Z,20608.00
2022-09-07T07:59:57.599Z,20384.00
2022-09-07T08:00:57.893Z,20320.00
2022-09-07T08:01:57.658Z,19552.00
2022-09-07T08:02:57.562Z,19360.00
2022-09-07T08:03:57.543Z,21120.00
2022-09-07T08:04:57.541Z,21376.00
2022-09-07T08:05:57.577Z,22048.00
2022-09-07T08:06:57.513Z,20896.00
2022-09-07T08:07:57.499Z,19392.00
2022-09-07T08:08:57.489Z,21472.00
2022-09-07T08:09:57.473Z,19936.00
2022-09-07T08:10:57.467Z,18560.00
2022-09-07T08:11:57.450Z,19488.00
2022-09-07T08:12:57.436Z,20576.00
2022-09-07T08:13:57.423Z,21504.00
2022-09-07T08:14:57.411Z,22080.00
2022-09-07T08:15:57.465Z,24384.00
2022-09-07T08:16:57.437Z,23296.00
2022-09-07T08:17:57.477Z,22016.00
2022-09-07T08:18:57.369Z,19520.00
2022-09-07T08:19:57.351Z,20960.00
2022-09-07T08:20:57.347Z,24576.00
2022-09-07T08:21:57.345Z,25312.00
2022-09-07T08:22:57.319Z,25408.00
2022-09-07T08:23:57.302Z,25888.00
2022-09-07T08:24:57.298Z,26208.00
2022-09-07T08:25:57.277Z,26688.00
2022-09-07T08:26:57.270Z,27744.00
2022-09-07T08:27:57.252Z,28704.00
2022-09-07T08:28:57.248Z,29376.00
2022-09-07T08:29:57.228Z,30112.00
2022-09-07T08:30:57.215Z,30176.00
2022-09-07T08:31:57.249Z,30400.00
2022-09-07T08:32:57.189Z,30464.00
2022-09-07T08:33:57.172Z,29952.00
2022-09-07T08:34:57.170Z,28736.00
2022-09-07T08:35:57.151Z,30048.00
2022-09-07T08:36:57.146Z,30528.00
2022-09-07T08:37:57.155Z,31264.00
2022-09-07T08:38:57.122Z,32736.00
2022-09-07T08:39:57.182Z,33280.00
2022-09-07T08:40:57.098Z,34144.00
2022-09-07T08:41:57.084Z,34080.00
2022-09-07T08:42:57.074Z,34496.00
2022-09-07T08:43:57.058Z,34624.00
2022-09-07T08:44:57.048Z,33760.00
2022-09-07T08:45:57.028Z,34368.00
2022-09-07T08:46:57.067Z,33504.00
2022-09-07T08:47:57.006Z,34848.00
2022-09-07T08:48:56.999Z,33600.00
2022-09-07T08:49:56.989Z,34240.00
2022-09-07T08:50:56.975Z,34656.00
2022-09-07T08:51:56.965Z,33344.00
2022-09-07T08:52:56.956Z,34560.00
2022-09-07T08:53:56.958Z,33088.00
2022-09-07T08:54:56.930Z,32480.00
2022-09-07T08:55:56.913Z,33472.00
2022-09-07T08:57:56.892Z,33184.00
2022-09-07T08:58:56.885Z,33888.00
2022-09-07T08:59:56.869Z,34592.00
2022-09-07T09:05:57.046Z,38816.00
2022-09-07T09:06:56.943Z,37216.00
2022-09-07T09:07:56.769Z,38368.00
2022-09-07T09:08:56.759Z,38656.00
2022-09-07T09:09:56.762Z,38176.00
2022-09-07T09:10:56.740Z,38784.00
2022-09-07T09:11:56.721Z,38816.00
2022-09-07T09:12:56.710Z,38144.00
2022-09-07T09:13:56.694Z,38624.00
2022-09-07T09:14:56.687Z,38240.00
2022-09-07T09:15:56.751Z,36224.00
2022-09-07T09:16:56.666Z,38112.00
2022-09-07T09:17:56.651Z,39776.00
2022-09-07T09:18:56.648Z,40576.00
2022-09-07T09:19:56.627Z,41472.00
2022-09-07T09:20:56.617Z,39584.00
2022-09-07T09:21:56.598Z,37376.00
2022-09-07T09:22:56.590Z,37888.00
2022-09-07T09:23:56.576Z,36288.00
2022-09-07T09:24:56.570Z,38624.00
2022-09-07T09:25:56.571Z,39936.00
2022-09-07T09:26:56.552Z,38016.00
2022-09-07T09:27:56.528Z,35296.00
2022-09-07T09:28:56.518Z,35616.00
2022-09-07T09:29:56.506Z,34208.00
2022-09-07T09:30:56.541Z,34880.00
2022-09-07T09:31:56.487Z,36032.00
2022-09-07T09:32:56.474Z,36992.00
2022-09-07T09:33:56.456Z,35328.00
2022-09-07T09:34:56.448Z,36448.00
2022-09-07T09:35:56.431Z,36640.00
2022-09-07T09:36:56.436Z,36448.00
2022-09-07T09:37:56.413Z,39232.00
2022-09-07T09:38:56.408Z,38496.00
2022-09-07T09:39:59.269Z,39584.00
2022-09-07T09:40:57.399Z,38784.00
2022-09-07T09:41:56.381Z,36928.00
2022-09-07T09:42:56.355Z,36672.00
2022-09-07T09:43:56.334Z,37536.00
2022-09-07T09:44:56.338Z,34816.00
2022-09-07T09:46:12.446Z,33504.00
2022-09-07T09:47:56.359Z,27520.00
2022-09-07T09:48:56.287Z,25632.00
2022-09-07T09:49:56.278Z,23712.00
2022-09-07T09:52:56.238Z,20736.00
2022-09-07T09:53:56.226Z,20672.00
2022-09-07T09:55:03.333Z,19680.00
2022-09-07T09:55:57.230Z,19392.00
2022-09-07T09:56:56.189Z,20096.00
2022-09-07T09:59:05.121Z,20672.00
2022-09-07T10:00:00.372Z,21248.00
2022-09-07T10:03:59.121Z,27648.00
2022-09-07T10:04:56.103Z,31040.00
2022-09-07T10:05:56.083Z,31808.00
2022-09-07T10:06:56.074Z,34016.00
2022-09-07T10:07:56.074Z,32320.00
2022-09-07T10:08:56.051Z,32800.00
2022-09-07T10:09:56.038Z,33824.00
2022-09-07T10:10:56.029Z,33280.00
2022-09-07T10:12:11.367Z,33728.00
2022-09-07T10:12:57.030Z,31360.00
2022-09-07T10:13:56.009Z,31008.00
2022-09-07T10:14:55.978Z,24672.00
2022-09-07T10:15:56.020Z,16544.00
2022-09-07T10:16:56.008Z,10780.00
2022-09-07T10:17:55.939Z,10104.00
2022-09-07T10:18:55.928Z,9808.00
2022-09-07T10:19:55.912Z,9764.00
2022-09-07T10:20:55.901Z,9424.00
2022-09-07T10:21:55.885Z,9124.00
2022-09-07T10:22:55.879Z,8872.00
2022-09-07T10:23:55.871Z,9132.00
2022-09-07T10:24:55.965Z,9028.00
2022-09-07T10:25:55.842Z,9056.00
2022-09-07T10:26:55.832Z,9300.00
2022-09-07T10:27:55.818Z,9664.00
2022-09-07T10:29:11.707Z,11424.00
2022-09-07T10:29:56.841Z,11672.00
2022-09-07T10:30:55.944Z,10248.00
2022-09-07T10:31:55.912Z,11256.00
2022-09-07T10:32:55.770Z,9296.00
2022-09-07T10:34:55.803Z,11920.00
2022-09-07T10:35:55.732Z,12768.00
2022-09-07T10:36:55.723Z,13664.00
2022-09-07T10:37:56.477Z,14784.00
2022-09-07T10:38:55.748Z,14880.00
2022-09-07T10:40:00.140Z,15136.00
2022-09-07T10:40:55.678Z,14592.00
2022-09-07T10:41:55.667Z,13472.00
2022-09-07T10:43:55.645Z,13216.00
2022-09-07T10:44:55.709Z,10024.00
2022-09-07T10:45:55.679Z,8604.00
2022-09-07T10:46:57.155Z,8784.00
2022-09-07T10:47:55.602Z,8700.00
2022-09-07T10:48:55.590Z,9552.00
2022-09-07T10:50:55.566Z,8200.00
2022-09-07T10:51:55.555Z,6200.00
2022-09-07T10:52:55.547Z,8044.00
2022-09-07T10:54:55.613Z,8680.00
2022-09-07T10:55:55.507Z,6160.00
2022-09-07T10:56:55.502Z,4848.00
2022-09-07T10:57:55.489Z,5076.00
2022-09-07T10:59:03.577Z,6068.00
2022-09-07T11:00:12.011Z,10832.00
2022-09-07T11:00:56.473Z,11968.00
2022-09-07T11:01:55.496Z,11988.00
2022-09-07T11:03:55.476Z,10620.00
2022-09-07T11:04:55.755Z,10964.00
2022-09-07T11:05:55.386Z,12180.00
2022-09-07T11:06:55.377Z,9004.00
2022-09-07T11:07:55.366Z,13344.00
2022-09-07T11:09:55.346Z,4604.00
2022-09-07T11:10:55.331Z,10812.00
2022-09-07T11:12:03.624Z,10228.00
2022-09-07T11:12:56.324Z,10776.00
2022-09-07T11:14:11.973Z,9984.00
2022-09-07T11:14:56.301Z,9880.00
2022-09-07T11:15:55.381Z,9256.00
2022-09-07T11:16:55.329Z,7068.00
2022-09-07T11:17:55.265Z,6748.00
2022-09-07T11:19:34.960Z,5684.00
2022-09-07T11:19:56.267Z,3432.00
2022-09-07T11:20:55.283Z,7152.00
2022-09-07T11:21:56.608Z,4188.00
2022-09-07T11:22:55.192Z,3852.00
2022-09-07T11:23:55.176Z,12320.00
2022-09-07T11:25:55.145Z,12512.00
2022-09-07T11:26:55.138Z,12896.00
2022-09-07T11:27:55.120Z,12736.00
2022-09-07T11:29:55.108Z,12224.00
2022-09-07T11:30:59.689Z,6380.00
2022-09-07T11:31:55.081Z,4836.00
2022-09-07T11:32:55.092Z,11360.00
2022-09-07T11:34:24.862Z,11516.00
2022-09-07T11:34:56.070Z,11264.00
2022-09-07T11:35:55.033Z,11020.00
2022-09-07T11:36:55.027Z,11064.00
2022-09-07T11:37:55.010Z,11100.00
2022-09-07T11:38:55.005Z,11236.00
2022-09-07T11:39:55.063Z,11308.00
2022-09-07T11:40:54.975Z,11280.00
2022-09-07T11:41:54.967Z,11264.00
2022-09-07T11:42:54.955Z,11260.00
2022-09-07T11:43:54.935Z,11336.00
2022-09-07T11:44:54.935Z,11388.00
2022-09-07T11:45:54.947Z,11412.00
2022-09-07T11:46:54.911Z,11476.00
2022-09-07T11:47:54.896Z,11488.00
2022-09-07T11:48:54.902Z,11592.00
2022-09-07T11:49:58.993Z,11596.00
2022-09-07T11:50:54.859Z,12160.00
2022-09-07T11:51:54.849Z,9952.00
2022-09-07T11:52:54.901Z,5424.00
2022-09-07T11:53:54.831Z,7932.00
2022-09-07T11:54:54.839Z,7388.00
2022-09-07T11:55:54.803Z,6416.00
2022-09-07T11:56:54.818Z,11120.00
2022-09-07T11:57:55.762Z,13376.00
2022-09-07T11:58:54.813Z,9848.00
2022-09-07T11:59:54.769Z,13056.00
2022-09-07T12:00:54.753Z,12800.00
2022-09-07T12:01:54.745Z,12832.00
2022-09-07T12:02:59.988Z,12832.00
2022-09-07T12:03:54.865Z,9692.00
2022-09-07T12:04:56.484Z,13152.00
2022-09-07T12:05:54.734Z,11388.00
2022-09-07T12:06:54.690Z,13376.00
2022-09-07T12:07:54.673Z,7500.00
2022-09-07T12:08:54.666Z,6876.00
2022-09-07T12:09:54.644Z,10300.00
2022-09-07T12:10:54.639Z,15168.00
2022-09-07T12:11:54.625Z,4960.00
2022-09-07T12:12:54.622Z,4840.00
2022-09-07T12:13:54.607Z,6204.00
2022-09-07T12:14:54.598Z,19104.00
2022-09-07T12:15:54.643Z,21760.00
2022-09-07T12:16:54.574Z,24704.00
2022-09-07T12:17:54.565Z,26272.00
2022-09-07T12:18:54.575Z,29376.00
2022-09-07T12:19:54.545Z,33280.00
2022-09-07T12:20:54.524Z,7436.00
2022-09-07T12:21:54.540Z,5696.00
2022-09-07T12:22:54.501Z,39456.00
2022-09-07T12:23:54.493Z,36384.00
2022-09-07T12:24:54.479Z,24288.00
2022-09-07T12:25:54.468Z,42816.00
2022-09-07T12:26:54.455Z,37600.00
2022-09-07T12:27:54.448Z,30528.00
2022-09-07T12:28:54.436Z,16992.00
2022-09-07T12:29:54.430Z,6548.00
2022-09-07T12:30:54.511Z,6064.00
2022-09-07T12:31:59.278Z,5968.00
2022-09-07T12:32:56.862Z,6108.00
2022-09-07T12:33:54.384Z,6124.00
2022-09-07T12:34:54.377Z,6328.00
2022-09-07T12:35:54.361Z,6536.00
2022-09-07T12:36:54.343Z,3756.00
2022-09-07T12:37:54.370Z,3692.00
2022-09-07T12:38:54.318Z,3060.00
2022-09-07T12:39:54.369Z,2312.00
2022-09-07T12:40:54.298Z,2308.00
2022-09-07T12:42:54.541Z,2308.00
2022-09-07T12:43:54.268Z,1968.00
2022-09-07T12:44:54.264Z,2088.00
2022-09-07T12:45:54.319Z,6040.00
2022-09-07T12:46:54.239Z,7524.00
2022-09-07T12:47:54.226Z,7640.00
2022-09-07T12:48:54.205Z,2540.00
2022-09-07T12:49:54.198Z,2724.00
2022-09-07T12:50:54.182Z,2344.00
2022-09-07T12:52:09.162Z,2156.00
2022-09-07T12:52:55.185Z,1984.00
2022-09-07T12:53:57.557Z,5700.00
2022-09-07T12:55:16.481Z,5640.00
2022-09-07T12:57:54.135Z,5476.00
2022-09-07T12:58:54.090Z,2368.00
2022-09-07T12:59:54.600Z,2364.00
2022-09-07T13:00:54.065Z,4124.00
2022-09-07T13:01:54.147Z,2896.00
2022-09-07T13:02:54.041Z,7708.00
2022-09-07T13:03:54.035Z,2732.00
2022-09-07T13:04:54.020Z,6136.00
2022-09-07T13:05:54.010Z,7528.00
2022-09-07T13:07:09.401Z,6724.00
2022-09-07T13:08:01.672Z,2656.00
2022-09-07T13:08:55.000Z,2480.00
2022-09-07T13:09:53.987Z,2372.00
2022-09-07T13:10:53.955Z,2176.00